Main page
METAR-TAF:

METAR-TAF

Airports :

Dax, France

Aérodrome de Dax - Seyresse

latitude: 43-41N, longitude: 001-04W, elevation: 32 m

Current weather observation

The report was made 15 minutes ago, at 07:00 UTC
Wind 2 kt from the Southeast
Temperature 2°C
Humidity 100%
Pressure 1026 hPa
Visibility: 4100 m
Few clouds at a height of 2900 ft

METAR: LFBY 180700Z AUTO 14002KT 4100 // FEW029 02/02 Q1026

Time: 08:15 (07:15 UTC)


TAF: missing

Weather observations and forecasts of more than 4000 airports (METAR and TAF reports).

The available stations are represented by yellow and red dots on the map.

Hover mouse over dot to see the name of the station.

Then click to see weather observations and forecasts.

To change the map : click on the green buttons with a black cross to zoom in, on the green button with a dash to zoom out, or on the green arrows for adjacent maps.


METAR-TAF: